createdAt,value
2018-07-17T00:00:01.764Z,99868.14
2018-07-17T00:02:30.375Z,99868.39
2018-07-17T00:04:59.300Z,99882.87
2018-07-17T00:07:27.398Z,99877.86
2018-07-17T00:09:55.486Z,99881.85
2018-07-17T00:12:23.606Z,99875.02
2018-07-17T00:14:51.802Z,99873.98
2018-07-17T00:17:20.809Z,99868.98
2018-07-17T00:19:50.095Z,99872.66
2018-07-17T00:22:19.152Z,99878.41
2018-07-17T00:24:47.472Z,99880.16
2018-07-17T00:27:15.652Z,99880.73
2018-07-17T00:29:43.852Z,99880.96
2018-07-17T00:32:12.129Z,99877.16
2018-07-17T00:34:40.221Z,99871.33
2018-07-17T00:37:08.301Z,99874.75
2018-07-17T00:39:36.400Z,99873.02
2018-07-17T00:42:04.570Z,99867.69
2018-07-17T00:44:32.687Z,99871.58
2018-07-17T00:47:01.173Z,99875.09
2018-07-17T00:49:29.265Z,99875.14
2018-07-17T00:51:57.388Z,99872.05
2018-07-17T00:54:25.557Z,99869.52
2018-07-17T00:56:53.694Z,99869.88
2018-07-17T00:59:22.170Z,99865.41
2018-07-17T01:01:55.590Z,99860.48
2018-07-17T01:04:30.042Z,99856.37
2018-07-17T01:07:03.664Z,99853.40
2018-07-17T01:09:37.000Z,99853.39
2018-07-17T01:12:10.511Z,99851.15
2018-07-17T01:15:09.083Z,99855.15
2018-07-17T01:17:37.323Z,99852.38
2018-07-17T01:20:06.860Z,99849.28
2018-07-17T01:22:35.008Z,99844.61
2018-07-17T01:25:03.100Z,99841.22
2018-07-17T01:27:31.331Z,99847.80
2018-07-17T01:29:59.399Z,99849.91
2018-07-17T01:32:27.778Z,99854.14
2018-07-17T01:34:55.952Z,99852.83
2018-07-17T01:37:24.205Z,99857.10
2018-07-17T01:39:53.304Z,99862.41
2018-07-17T01:42:21.479Z,99851.98
2018-07-17T01:44:50.597Z,99850.30
2018-07-17T01:47:18.712Z,99849.10
2018-07-17T01:49:46.813Z,99851.39
2018-07-17T01:52:15.764Z,99853.45
2018-07-17T01:54:43.896Z,99849.62
2018-07-17T01:57:11.966Z,99858.23
2018-07-17T01:59:40.237Z,99854.42
2018-07-17T02:02:08.502Z,99850.91
2018-07-17T02:04:36.626Z,99853.16
2018-07-17T02:07:05.162Z,99859.98
2018-07-17T02:09:33.242Z,99859.53
2018-07-17T02:12:02.190Z,99855.72
2018-07-17T02:14:31.236Z,99857.87
2018-07-17T02:17:00.051Z,99857.05
2018-07-17T02:19:28.213Z,99855.37
2018-07-17T02:21:57.306Z,99860.96
2018-07-17T02:24:25.568Z,99856.27
2018-07-17T02:26:53.753Z,99851.05
2018-07-17T02:29:21.934Z,99857.05
2018-07-17T02:31:50.081Z,99857.83
2018-07-17T02:34:18.456Z,99865.20
2018-07-17T02:36:46.587Z,99864.37
2018-07-17T02:39:14.964Z,99859.57
2018-07-17T02:41:43.043Z,99867.85
2018-07-17T02:44:11.332Z,99864.47
2018-07-17T02:46:39.536Z,99870.06
2018-07-17T02:49:07.662Z,99871.37
2018-07-17T02:51:35.731Z,99875.24
2018-07-17T02:54:03.844Z,99878.27
2018-07-17T02:56:32.519Z,99889.81
2018-07-17T02:59:01.439Z,99893.25
2018-07-17T03:01:29.483Z,99885.95
2018-07-17T03:03:57.570Z,99890.25
2018-07-17T03:06:25.871Z,99889.80
2018-07-17T03:08:53.984Z,99891.63
2018-07-17T03:11:22.090Z,99889.41
2018-07-17T03:13:50.226Z,99890.62
2018-07-17T03:16:18.514Z,99900.53
2018-07-17T03:18:46.695Z,99901.77
2018-07-17T03:21:14.778Z,99902.72
2018-07-17T03:23:42.987Z,99902.59
2018-07-17T03:26:11.171Z,99900.00
2018-07-17T03:28:39.261Z,99902.84
2018-07-17T03:31:07.537Z,99897.67
2018-07-17T03:33:35.648Z,99909.17
2018-07-17T03:36:03.950Z,99906.13
2018-07-17T03:38:32.065Z,99912.20
2018-07-17T03:41:00.190Z,99916.52
2018-07-17T03:43:28.379Z,99911.39
2018-07-17T03:45:56.652Z,99916.98
2018-07-17T03:48:24.724Z,99912.56
2018-07-17T03:50:52.811Z,99915.62
2018-07-17T03:53:20.959Z,99916.87
2018-07-17T03:55:49.073Z,99916.05
2018-07-17T03:58:17.450Z,99910.86
2018-07-17T04:00:45.599Z,99917.73
2018-07-17T04:03:13.677Z,99913.44
2018-07-17T04:05:41.856Z,99910.88
2018-07-17T04:08:10.022Z,99925.02
2018-07-17T04:10:38.135Z,99925.95
2018-07-17T04:13:06.470Z,99932.80
2018-07-17T04:15:34.749Z,99925.95
2018-07-17T04:18:02.958Z,99929.95
2018-07-17T04:20:31.442Z,99926.47
2018-07-17T04:22:59.571Z,99931.83
2018-07-17T04:25:27.741Z,99939.25
2018-07-17T04:27:55.864Z,99937.09
2018-07-17T04:30:23.964Z,99940.83
2018-07-17T04:32:52.269Z,99939.98
2018-07-17T04:35:20.378Z,99941.75
2018-07-17T04:37:48.471Z,99945.70
2018-07-17T04:40:16.591Z,99948.61
2018-07-17T04:42:44.680Z,99946.39
2018-07-17T04:45:12.935Z,99945.38
2018-07-17T04:47:40.996Z,99946.92
2018-07-17T04:50:09.161Z,99952.08
2018-07-17T04:52:37.920Z,99951.92
2018-07-17T04:55:06.021Z,99947.66
2018-07-17T04:57:34.097Z,99947.29
2018-07-17T05:00:02.241Z,99952.92
2018-07-17T05:02:30.374Z,99952.67
2018-07-17T05:04:58.486Z,99960.27
2018-07-17T05:07:26.562Z,99955.13
2018-07-17T05:09:54.690Z,99965.05
2018-07-17T05:12:22.891Z,99964.97
2018-07-17T05:14:51.059Z,99966.34
2018-07-17T05:17:19.143Z,99964.41
2018-07-17T05:19:47.283Z,99968.88
2018-07-17T05:22:15.347Z,99969.40
2018-07-17T05:24:43.450Z,99969.86
2018-07-17T05:27:11.572Z,99975.06
2018-07-17T05:29:39.819Z,99969.48
2018-07-17T05:32:08.191Z,99980.27
2018-07-17T05:34:36.309Z,99980.22
2018-07-17T05:37:04.567Z,99983.83
2018-07-17T05:39:32.747Z,99982.05
2018-07-17T05:42:01.984Z,99979.09
2018-07-17T05:44:30.506Z,99976.95
2018-07-17T05:46:58.597Z,99977.47
2018-07-17T05:49:26.722Z,99971.00
2018-07-17T05:51:54.858Z,99980.47
2018-07-17T05:54:22.916Z,99981.77
2018-07-17T05:56:50.986Z,99981.76
2018-07-17T05:59:19.062Z,99980.08
2018-07-17T06:01:47.151Z,99987.38
2018-07-17T06:04:15.220Z,99986.91
2018-07-17T06:06:43.404Z,99983.45
2018-07-17T06:09:11.932Z,99985.65
2018-07-17T06:11:41.197Z,99983.86
2018-07-17T06:14:09.294Z,99985.20
2018-07-17T06:16:37.414Z,99989.98
2018-07-17T06:19:05.877Z,99993.41
2018-07-17T06:21:34.630Z,99984.31
2018-07-17T06:24:02.705Z,99985.27
2018-07-17T06:26:30.815Z,99993.87
2018-07-17T06:28:58.901Z,99995.24
2018-07-17T06:31:27.010Z,99999.50
2018-07-17T06:33:55.198Z,99996.88
2018-07-17T06:36:23.427Z,99998.69
2018-07-17T06:38:51.560Z,99997.40
2018-07-17T06:41:19.912Z,99997.39
2018-07-17T06:43:48.078Z,100002.13
2018-07-17T06:46:27.140Z,100000.83
2018-07-17T06:48:55.443Z,99999.95
2018-07-17T06:51:23.559Z,100003.83
2018-07-17T06:53:51.634Z,100001.22
2018-07-17T06:56:19.741Z,100002.91
2018-07-17T06:58:47.812Z,100004.20
2018-07-17T07:01:15.980Z,99997.72
2018-07-17T07:03:44.068Z,99996.87
2018-07-17T07:06:12.151Z,99994.25
2018-07-17T07:08:40.232Z,99995.14
2018-07-17T07:11:08.394Z,99985.63
2018-07-17T07:13:36.454Z,99991.14
2018-07-17T07:16:05.529Z,99994.95
2018-07-17T07:18:33.612Z,99992.84
2018-07-17T07:21:02.394Z,99990.73
2018-07-17T07:23:30.485Z,99992.00
2018-07-17T07:25:58.612Z,99989.36
2018-07-17T07:28:26.702Z,99995.34
2018-07-17T07:30:54.790Z,99993.59
2018-07-17T07:33:22.940Z,99992.84
2018-07-17T07:35:51.239Z,99991.77
2018-07-17T07:38:19.294Z,99994.37
2018-07-17T07:40:47.421Z,99998.27
2018-07-17T07:43:15.499Z,100004.33
2018-07-17T07:45:43.595Z,99995.25
2018-07-17T07:48:11.666Z,99997.89
2018-07-17T07:50:39.779Z,99987.67
2018-07-17T07:53:07.839Z,99985.10
2018-07-17T07:55:35.992Z,99989.90
2018-07-17T07:58:04.043Z,99983.63
2018-07-17T08:00:33.176Z,99985.72
2018-07-17T08:03:01.246Z,99985.87
2018-07-17T08:05:29.324Z,99980.20
2018-07-17T08:07:57.551Z,99980.81
2018-07-17T08:10:25.685Z,99988.78
2018-07-17T08:12:54.467Z,99987.08
2018-07-17T08:15:22.687Z,99994.37
2018-07-17T08:17:50.824Z,99983.75
2018-07-17T08:20:19.027Z,99986.38
2018-07-17T08:22:47.100Z,99991.32
2018-07-17T08:25:15.801Z,99990.39
2018-07-17T08:27:43.900Z,99992.34
2018-07-17T08:30:12.661Z,99995.81
2018-07-17T08:32:40.811Z,99997.41
2018-07-17T08:35:09.200Z,99991.72
2018-07-17T08:37:37.750Z,99989.41
2018-07-17T08:40:06.054Z,99991.43
2018-07-17T08:42:34.145Z,99990.82
2018-07-17T08:45:06.828Z,99996.14
2018-07-17T08:47:35.183Z,99990.95
2018-07-17T08:50:03.343Z,99990.55
2018-07-17T08:52:31.477Z,99989.88
2018-07-17T08:54:59.573Z,99989.20
2018-07-17T08:57:27.966Z,99985.34
2018-07-17T08:59:56.041Z,99985.78
2018-07-17T09:02:24.174Z,99983.42
2018-07-17T09:04:52.322Z,99985.84
2018-07-17T09:07:20.663Z,99987.39
2018-07-17T09:09:48.731Z,99989.21
2018-07-17T09:12:16.799Z,99995.48
2018-07-17T09:14:44.891Z,99991.19
2018-07-17T09:17:13.060Z,100001.84
2018-07-17T09:19:41.384Z,99996.34
2018-07-17T09:22:09.467Z,100002.38
2018-07-17T09:24:37.527Z,99998.77
2018-07-17T09:27:05.789Z,99999.66
2018-07-17T09:29:34.274Z,100000.59
2018-07-17T09:32:03.062Z,100007.01
2018-07-17T09:34:31.181Z,100008.09
2018-07-17T09:36:59.271Z,100009.06
2018-07-17T09:39:27.351Z,100004.25
2018-07-17T09:41:55.464Z,100001.03
2018-07-17T09:44:23.568Z,100004.81
2018-07-17T09:46:51.683Z,99997.91
2018-07-17T09:49:19.769Z,100005.34
2018-07-17T09:51:47.874Z,100012.53
2018-07-17T09:54:16.013Z,100006.57
2018-07-17T09:56:44.068Z,100006.73
2018-07-17T09:59:12.169Z,100008.86
2018-07-17T10:01:45.535Z,100005.23
2018-07-17T10:04:13.627Z,100009.68
2018-07-17T10:06:41.754Z,100008.72
2018-07-17T10:09:09.830Z,100010.86
2018-07-17T10:11:38.160Z,100008.34
2018-07-17T10:14:06.310Z,100004.52
2018-07-17T10:16:34.448Z,100003.58
2018-07-17T10:19:03.107Z,100002.84
2018-07-17T10:21:31.202Z,99994.61
2018-07-17T10:23:59.292Z,99985.09
2018-07-17T10:26:27.499Z,99991.95
2018-07-17T10:28:55.463Z,99995.41
2018-07-17T10:31:23.640Z,99992.25
2018-07-17T10:33:51.877Z,99985.41
2018-07-17T10:36:20.055Z,99984.27
2018-07-17T10:38:48.151Z,99987.26
2018-07-17T10:41:16.222Z,99993.34
2018-07-17T10:43:44.371Z,99987.79
2018-07-17T10:46:12.580Z,99988.39
2018-07-17T10:48:40.712Z,99987.05
2018-07-17T10:51:09.048Z,99976.70
2018-07-17T10:53:37.246Z,99980.24
2018-07-17T10:56:05.354Z,99975.05
2018-07-17T10:58:33.435Z,99968.51
2018-07-17T11:01:02.371Z,99968.80
2018-07-17T11:03:30.566Z,99957.06
2018-07-17T11:05:58.732Z,99954.11
2018-07-17T11:08:27.013Z,99949.92
2018-07-17T11:10:55.128Z,99950.90
2018-07-17T11:13:23.302Z,99957.09
2018-07-17T11:15:52.312Z,99949.08
2018-07-17T11:18:20.504Z,99946.55
2018-07-17T11:20:50.978Z,99946.72
2018-07-17T11:23:19.053Z,99939.53
2018-07-17T11:25:47.118Z,99943.23
2018-07-17T11:28:16.306Z,99929.81
2018-07-17T11:30:46.443Z,99933.12
2018-07-17T11:33:14.554Z,99933.91
2018-07-17T11:35:43.399Z,99927.19
2018-07-17T11:38:11.560Z,99924.13
2018-07-17T11:40:39.622Z,99921.26
2018-07-17T11:43:07.800Z,99931.08
2018-07-17T11:45:36.103Z,99918.48
2018-07-17T11:48:04.237Z,99907.42
2018-07-17T11:50:32.346Z,99909.33
2018-07-17T11:53:00.450Z,99902.93
2018-07-17T11:55:28.722Z,99898.61
2018-07-17T11:57:57.077Z,99908.03
2018-07-17T12:00:25.659Z,99911.91
2018-07-17T12:02:53.809Z,99898.45
2018-07-17T12:05:21.977Z,99896.73
2018-07-17T12:07:50.225Z,99891.83
2018-07-17T12:10:18.345Z,99898.59
2018-07-17T12:12:46.719Z,99910.68
2018-07-17T12:15:14.784Z,99901.63
2018-07-17T12:17:42.981Z,99915.17
2018-07-17T12:20:11.409Z,99913.19
2018-07-17T12:22:39.542Z,99920.12
2018-07-17T12:25:07.868Z,99930.41
2018-07-17T12:27:36.109Z,99920.33
2018-07-17T12:30:05.298Z,99925.51
2018-07-17T12:32:33.994Z,99920.02
2018-07-17T12:35:02.234Z,99917.39
2018-07-17T12:37:30.350Z,99919.42
2018-07-17T12:39:58.430Z,99913.08
2018-07-17T12:42:26.586Z,99910.37
2018-07-17T12:44:54.766Z,99911.39
2018-07-17T12:47:22.893Z,99909.20
2018-07-17T12:49:51.127Z,99924.98
2018-07-17T12:52:19.297Z,99920.38
2018-07-17T12:54:47.637Z,99922.27
2018-07-17T12:57:15.796Z,99916.61
2018-07-17T12:59:44.108Z,99913.52
2018-07-17T13:02:12.247Z,99923.44
2018-07-17T13:04:40.352Z,99924.03
2018-07-17T13:07:08.524Z,99922.86
2018-07-17T13:09:36.698Z,99926.86
2018-07-17T13:12:04.834Z,99923.69
2018-07-17T13:14:34.207Z,99917.30
2018-07-17T13:17:02.290Z,99918.88
2018-07-17T13:19:31.046Z,99913.59
2018-07-17T13:21:59.919Z,99917.21
2018-07-17T13:24:28.014Z,99914.91
2018-07-17T13:26:56.287Z,99916.03
2018-07-17T13:29:24.674Z,99919.52
2018-07-17T13:31:52.775Z,99910.84
2018-07-17T13:37:11.510Z,99933.39
2018-07-17T13:39:39.674Z,99918.60
2018-07-17T13:42:07.783Z,99931.08
2018-07-17T13:44:36.350Z,99929.09
2018-07-17T13:47:04.516Z,99924.58
2018-07-17T13:49:32.732Z,99932.41
2018-07-17T13:52:00.928Z,99936.52
2018-07-17T13:54:29.124Z,99920.98
2018-07-17T13:56:57.199Z,99924.84
2018-07-17T13:59:25.355Z,99944.61
2018-07-17T14:01:53.550Z,99937.03
2018-07-17T14:04:21.714Z,99930.09
2018-07-17T14:06:49.952Z,99930.95
2018-07-17T14:09:18.163Z,99929.91
2018-07-17T14:11:46.477Z,99932.49
2018-07-17T14:14:14.638Z,99928.91
2018-07-17T14:16:42.867Z,99944.22
2018-07-17T14:19:11.089Z,99930.29
2018-07-17T14:21:39.354Z,99931.73
2018-07-17T14:24:07.555Z,99924.05
2018-07-17T14:26:39.471Z,99920.38
2018-07-17T14:29:07.608Z,99914.34
2018-07-17T14:31:36.843Z,99920.30
2018-07-17T14:34:05.685Z,99928.53
2018-07-17T14:36:35.076Z,99914.50
2018-07-17T14:39:03.433Z,99921.70
2018-07-17T14:41:32.208Z,99917.86
2018-07-17T14:44:01.608Z,99918.22
2018-07-17T14:46:30.200Z,99910.67
2018-07-17T14:48:58.875Z,99905.96
2018-07-17T14:51:27.087Z,99904.09
2018-07-17T14:53:57.261Z,99903.25
2018-07-17T14:56:25.573Z,99902.14
2018-07-17T14:58:53.796Z,99890.02
2018-07-17T15:01:22.143Z,99897.31
2018-07-17T15:03:51.247Z,99893.64
2018-07-17T15:06:19.429Z,99887.64
2018-07-17T15:08:47.907Z,99885.95
2018-07-17T15:11:16.297Z,99883.48
2018-07-17T15:13:44.745Z,99886.81
2018-07-17T15:16:13.205Z,99881.33
2018-07-17T15:18:41.410Z,99881.50
2018-07-17T15:21:09.702Z,99879.80
2018-07-17T15:23:38.992Z,99878.39
2018-07-17T15:26:09.700Z,99893.48
2018-07-17T15:28:38.071Z,99894.02
2018-07-17T15:31:06.188Z,99900.00
2018-07-17T15:33:34.347Z,99905.88
2018-07-17T15:36:02.638Z,99908.16
2018-07-17T15:38:30.914Z,99902.36
2018-07-17T15:40:59.016Z,99906.02
2018-07-17T15:43:27.250Z,99908.30
2018-07-17T15:45:55.384Z,99904.02
2018-07-17T15:48:23.516Z,99884.05
2018-07-17T15:50:51.845Z,99889.42
2018-07-17T15:53:20.072Z,99880.92
2018-07-17T15:55:49.499Z,99896.84
2018-07-17T15:58:17.599Z,99913.77
2018-07-17T16:00:45.723Z,99904.06
2018-07-17T16:03:13.933Z,99906.70
2018-07-17T16:05:42.093Z,99911.88
2018-07-17T16:08:10.272Z,99904.09
2018-07-17T16:10:38.449Z,99917.33
2018-07-17T16:13:06.648Z,99924.19
2018-07-17T16:15:35.690Z,99925.22
2018-07-17T16:21:40.877Z,99933.05
2018-07-17T16:24:08.998Z,99931.95
2018-07-17T16:26:43.042Z,99929.38
2018-07-17T16:29:11.724Z,99933.61
2018-07-17T16:31:39.772Z,99935.52
2018-07-17T16:34:07.851Z,99933.19
2018-07-17T16:36:35.970Z,99935.45
2018-07-17T16:39:06.962Z,99927.69
2018-07-17T16:41:35.171Z,99933.05
2018-07-17T16:44:03.278Z,99931.81
2018-07-17T16:46:31.383Z,99936.17
2018-07-17T16:48:59.485Z,99932.31
2018-07-17T16:51:27.677Z,99944.62
2018-07-17T16:53:56.342Z,99937.83
2018-07-17T16:56:24.434Z,99934.00
2018-07-17T16:58:52.574Z,99945.59
2018-07-17T17:01:20.681Z,99940.70
2018-07-17T17:03:48.767Z,99941.60
2018-07-17T17:06:17.060Z,99940.08
2018-07-17T17:08:45.415Z,99947.86
2018-07-17T17:11:13.547Z,99940.11
2018-07-17T17:13:41.653Z,99942.36
2018-07-17T17:16:09.763Z,99938.86
2018-07-17T17:18:38.052Z,99942.66
2018-07-17T17:21:06.212Z,99947.76
2018-07-17T17:23:36.716Z,99947.87
2018-07-17T17:26:06.175Z,99946.20
2018-07-17T17:28:35.703Z,99949.13
2018-07-17T17:31:03.880Z,99956.22
2018-07-17T17:33:32.076Z,99956.22
2018-07-17T17:36:00.240Z,99961.50
2018-07-17T17:38:28.342Z,99958.91
2018-07-17T17:40:56.501Z,99961.23
2018-07-17T17:43:24.589Z,99962.70
2018-07-17T17:45:52.888Z,99964.44
2018-07-17T17:48:21.044Z,99959.94
2018-07-17T17:50:49.240Z,99966.17
2018-07-17T17:53:17.362Z,99966.64
2018-07-17T17:55:45.487Z,99971.83
2018-07-17T17:58:13.719Z,99967.66
2018-07-17T18:00:41.957Z,99973.30
2018-07-17T18:03:10.155Z,99966.36
2018-07-17T18:05:39.469Z,99968.04
2018-07-17T18:08:07.722Z,99964.77
2018-07-17T18:10:35.834Z,99967.36
2018-07-17T18:13:03.950Z,99969.43
2018-07-17T18:15:32.156Z,99969.49
2018-07-17T18:18:00.236Z,99974.92
2018-07-17T18:20:28.517Z,99973.02
2018-07-17T18:22:56.964Z,99972.27
2018-07-17T18:25:26.220Z,99978.25
2018-07-17T18:27:54.646Z,99977.19
2018-07-17T18:30:22.859Z,99990.91
2018-07-17T18:32:50.934Z,99992.11
2018-07-17T18:35:19.273Z,99984.11
2018-07-17T18:37:47.771Z,99988.98
2018-07-17T18:40:15.970Z,99988.55
2018-07-17T18:42:44.236Z,99993.36
2018-07-17T18:45:21.781Z,99991.50
2018-07-17T18:48:10.982Z,99998.06
2018-07-17T18:50:39.671Z,99994.55
2018-07-17T18:53:07.896Z,100003.16
2018-07-17T18:55:36.774Z,100001.89
2018-07-17T18:58:05.646Z,100004.59
2018-07-17T19:00:33.730Z,100004.59
2018-07-17T19:03:02.043Z,100009.45
2018-07-17T19:05:30.154Z,100014.64
2018-07-17T19:07:58.495Z,100014.10
2018-07-17T19:10:26.633Z,100010.52
2018-07-17T19:12:54.771Z,100018.30
2018-07-17T19:15:22.927Z,100029.31
2018-07-17T19:17:51.037Z,100026.04
2018-07-17T19:20:19.565Z,100027.80
2018-07-17T19:22:48.009Z,100030.34
2018-07-17T19:25:16.173Z,100030.66
2018-07-17T19:27:44.344Z,100030.81
2018-07-17T19:30:13.595Z,100035.05
2018-07-17T19:32:41.657Z,100039.80
2018-07-17T19:35:09.742Z,100052.98
2018-07-17T19:37:37.915Z,100052.52
2018-07-17T19:40:06.824Z,100049.66
2018-07-17T19:42:35.695Z,100057.48
2018-07-17T19:45:03.839Z,100057.05
2018-07-17T19:47:32.046Z,100064.44
2018-07-17T19:50:00.197Z,100066.67
2018-07-17T19:52:29.372Z,100067.52
2018-07-17T19:54:57.474Z,100068.47
2018-07-17T19:57:26.604Z,100069.41
2018-07-17T19:59:54.767Z,100072.84
2018-07-17T20:02:23.616Z,100074.15
2018-07-17T20:04:51.978Z,100077.36
2018-07-17T20:07:20.079Z,100088.28
2018-07-17T20:09:48.252Z,100090.73
2018-07-17T20:12:16.559Z,100091.58
2018-07-17T20:14:44.659Z,100096.84
2018-07-17T20:17:12.980Z,100101.27
2018-07-17T20:19:41.299Z,100110.64
2018-07-17T20:22:09.467Z,100122.66
2018-07-17T20:24:37.576Z,100111.89
2018-07-17T20:27:06.183Z,100113.66
2018-07-17T20:29:34.341Z,100113.91
2018-07-17T20:32:02.475Z,100114.72
2018-07-17T20:34:30.762Z,100113.95
2018-07-17T20:36:59.392Z,100117.54
2018-07-17T20:39:27.608Z,100116.96
2018-07-17T20:41:55.748Z,100121.02
2018-07-17T20:44:23.875Z,100120.22
2018-07-17T20:46:52.136Z,100121.68
2018-07-17T20:49:20.399Z,100124.71
2018-07-17T20:51:48.550Z,100121.72
2018-07-17T20:54:17.084Z,100123.74
2018-07-17T20:56:45.324Z,100129.39
2018-07-17T20:59:13.422Z,100129.88
2018-07-17T21:01:41.830Z,100129.51
2018-07-17T21:04:10.171Z,100134.30
2018-07-17T21:06:38.302Z,100137.78
2018-07-17T21:09:09.329Z,100143.60
2018-07-17T21:11:37.482Z,100151.22
2018-07-17T21:14:05.678Z,100154.79
2018-07-17T21:16:33.768Z,100159.59
2018-07-17T21:19:01.940Z,100147.92
2018-07-17T21:21:30.023Z,100154.88
2018-07-17T21:23:58.214Z,100151.69
2018-07-17T21:26:26.478Z,100156.49
2018-07-17T21:28:54.594Z,100150.64
2018-07-17T21:31:22.736Z,100153.92
2018-07-17T21:33:51.124Z,100158.00
2018-07-17T21:36:19.323Z,100152.56
2018-07-17T21:38:47.391Z,100149.83
2018-07-17T21:41:15.470Z,100152.83
2018-07-17T21:43:43.557Z,100155.11
2018-07-17T21:46:11.694Z,100152.71
2018-07-17T21:48:39.791Z,100153.68
2018-07-17T21:51:07.927Z,100154.84
2018-07-17T21:53:36.341Z,100159.69
2018-07-17T21:56:04.938Z,100156.60
2018-07-17T21:58:33.118Z,100163.50
2018-07-17T22:01:02.494Z,100163.17
2018-07-17T22:03:31.686Z,100172.23
2018-07-17T22:05:59.923Z,100175.93
2018-07-17T22:08:28.108Z,100173.44
2018-07-17T22:10:56.232Z,100176.09
2018-07-17T22:13:24.377Z,100183.16
2018-07-17T22:15:52.519Z,100181.26
2018-07-17T22:18:20.768Z,100181.34
2018-07-17T22:20:48.891Z,100180.81
2018-07-17T22:23:17.333Z,100184.04
2018-07-17T22:25:45.443Z,100179.83
2018-07-17T22:28:13.587Z,100178.37
2018-07-17T22:30:41.886Z,100183.02
2018-07-17T22:33:10.284Z,100176.95
2018-07-17T22:35:38.487Z,100181.44
2018-07-17T22:38:07.126Z,100176.34
2018-07-17T22:40:35.209Z,100178.36
2018-07-17T22:43:04.003Z,100175.25
2018-07-17T22:45:32.100Z,100178.60
2018-07-17T22:48:00.211Z,100179.37
2018-07-17T22:50:28.454Z,100181.20
2018-07-17T22:52:56.855Z,100183.74
2018-07-17T22:55:25.483Z,100189.08
2018-07-17T22:57:53.631Z,100191.54
2018-07-17T23:00:21.734Z,100188.62
2018-07-17T23:02:49.878Z,100189.87
2018-07-17T23:05:18.920Z,100195.93
2018-07-17T23:07:47.072Z,100196.54
2018-07-17T23:10:15.313Z,100193.08
2018-07-17T23:12:43.446Z,100183.83
2018-07-17T23:15:11.624Z,100183.42
2018-07-17T23:17:40.410Z,100186.04
2018-07-17T23:20:09.511Z,100188.56
2018-07-17T23:22:48.609Z,100187.92
2018-07-17T23:25:17.143Z,100191.24
2018-07-17T23:27:45.623Z,100193.40
2018-07-17T23:30:13.924Z,100197.51
2018-07-17T23:32:42.191Z,100198.12
2018-07-17T23:35:11.196Z,100208.66
2018-07-17T23:37:39.351Z,100204.73
2018-07-17T23:40:07.452Z,100213.58
2018-07-17T23:42:35.691Z,100210.12
2018-07-17T23:45:03.775Z,100214.05
2018-07-17T23:47:32.198Z,100219.42
2018-07-17T23:50:00.275Z,100213.82
2018-07-17T23:52:28.435Z,100218.32
2018-07-17T23:54:56.491Z,100209.99
2018-07-17T23:57:24.769Z,100206.86
2018-07-17T23:59:52.881Z,100203.80
